sensor_id;sensor_type;location;lat;lon;timestamp;P1;durP1;ratioP1;P2;durP2;ratioP2
71562;SDS011;59391;52.504;13.438;2022-10-22T00:00:21;20.20;;;12.52;;
71562;SDS011;59391;52.504;13.438;2022-10-22T00:02:51;21.15;;;13.48;;
71562;SDS011;59391;52.504;13.438;2022-10-22T00:05:17;22.35;;;14.52;;
71562;SDS011;59391;52.504;13.438;2022-10-22T00:07:42;21.83;;;14.50;;
71562;SDS011;59391;52.504;13.438;2022-10-22T00:10:08;22.87;;;13.30;;
71562;SDS011;59391;52.504;13.438;2022-10-22T00:12:36;23.20;;;13.57;;
71562;SDS011;59391;52.504;13.438;2022-10-22T00:15:03;21.92;;;13.05;;
71562;SDS011;59391;52.504;13.438;2022-10-22T00:17:30;22.63;;;14.32;;
71562;SDS011;59391;52.504;13.438;2022-10-22T00:19:56;21.07;;;13.50;;
71562;SDS011;59391;52.504;13.438;2022-10-22T00:22:22;20.00;;;12.38;;
71562;SDS011;59391;52.504;13.438;2022-10-22T00:24:53;21.42;;;13.48;;
71562;SDS011;59391;52.504;13.438;2022-10-22T00:27:18;20.77;;;13.27;;
71562;SDS011;59391;52.504;13.438;2022-10-22T00:32:47;20.48;;;13.00;;
71562;SDS011;59391;52.504;13.438;2022-10-22T00:35:46;22.50;;;13.48;;
71562;SDS011;59391;52.504;13.438;2022-10-22T00:39:07;24.17;;;13.32;;
71562;SDS011;59391;52.504;13.438;2022-10-22T00:41:51;18.80;;;12.65;;
71562;SDS011;59391;52.504;13.438;2022-10-22T01:03:27;24.00;;;13.30;;
71562;SDS011;59391;52.504;13.438;2022-10-22T01:36:58;19.97;;;12.17;;
71562;SDS011;59391;52.504;13.438;2022-10-22T01:43:26;20.98;;;12.40;;
71562;SDS011;59391;52.504;13.438;2022-10-22T01:45:56;17.60;;;11.52;;
71562;SDS011;59391;52.504;13.438;2022-10-22T01:56:35;20.40;;;12.02;;
71562;SDS011;59391;52.504;13.438;2022-10-22T02:00:11;20.33;;;12.77;;
71562;SDS011;59391;52.504;13.438;2022-10-22T02:03:55;18.83;;;11.18;;
71562;SDS011;59391;52.504;13.438;2022-10-22T02:06:31;21.92;;;11.52;;
71562;SDS011;59391;52.504;13.438;2022-10-22T02:09:00;21.17;;;12.57;;
71562;SDS011;59391;52.504;13.438;2022-10-22T02:11:28;22.73;;;13.18;;
71562;SDS011;59391;52.504;13.438;2022-10-22T02:13:58;20.63;;;12.13;;
71562;SDS011;59391;52.504;13.438;2022-10-22T02:16:50;18.10;;;11.48;;
71562;SDS011;59391;52.504;13.438;2022-10-22T02:19:20;18.55;;;11.57;;
71562;SDS011;59391;52.504;13.438;2022-10-22T02:21:51;19.23;;;11.30;;
71562;SDS011;59391;52.504;13.438;2022-10-22T02:24:18;20.83;;;11.65;;
71562;SDS011;59391;52.504;13.438;2022-10-22T02:26:54;20.08;;;12.35;;
71562;SDS011;59391;52.504;13.438;2022-10-22T02:29:56;18.58;;;11.73;;
71562;SDS011;59391;52.504;13.438;2022-10-22T02:33:21;19.70;;;11.13;;
71562;SDS011;59391;52.504;13.438;2022-10-22T02:35:54;19.03;;;11.40;;
71562;SDS011;59391;52.504;13.438;2022-10-22T02:38:21;19.63;;;11.43;;
71562;SDS011;59391;52.504;13.438;2022-10-22T02:40:50;20.98;;;11.88;;
71562;SDS011;59391;52.504;13.438;2022-10-22T02:43:16;18.50;;;10.97;;
71562;SDS011;59391;52.504;13.438;2022-10-22T02:45:43;18.98;;;11.63;;
71562;SDS011;59391;52.504;13.438;2022-10-22T02:48:12;19.80;;;12.10;;
71562;SDS011;59391;52.504;13.438;2022-10-22T02:50:40;20.08;;;12.48;;
71562;SDS011;59391;52.504;13.438;2022-10-22T02:53:09;20.08;;;11.85;;
71562;SDS011;59391;52.504;13.438;2022-10-22T02:55:34;19.10;;;12.23;;
71562;SDS011;59391;52.504;13.438;2022-10-22T02:58:06;17.02;;;11.20;;
71562;SDS011;59391;52.504;13.438;2022-10-22T03:00:31;17.73;;;11.20;;
71562;SDS011;59391;52.504;13.438;2022-10-22T03:02:57;19.23;;;12.27;;
71562;SDS011;59391;52.504;13.438;2022-10-22T03:05:23;19.42;;;11.95;;
71562;SDS011;59391;52.504;13.438;2022-10-22T03:07:54;16.85;;;11.15;;
71562;SDS011;59391;52.504;13.438;2022-10-22T03:10:20;18.50;;;11.60;;
71562;SDS011;59391;52.504;13.438;2022-10-22T03:12:45;20.27;;;12.20;;
71562;SDS011;59391;52.504;13.438;2022-10-22T03:15:12;18.27;;;11.43;;
71562;SDS011;59391;52.504;13.438;2022-10-22T03:17:40;18.10;;;11.52;;
71562;SDS011;59391;52.504;13.438;2022-10-22T03:20:06;17.17;;;10.97;;
71562;SDS011;59391;52.504;13.438;2022-10-22T03:22:32;17.50;;;10.88;;
71562;SDS011;59391;52.504;13.438;2022-10-22T03:25:02;18.75;;;10.77;;
71562;SDS011;59391;52.504;13.438;2022-10-22T03:27:34;20.65;;;11.43;;
71562;SDS011;59391;52.504;13.438;2022-10-22T03:30:02;19.23;;;11.27;;
71562;SDS011;59391;52.504;13.438;2022-10-22T03:32:29;18.05;;;11.05;;
71562;SDS011;59391;52.504;13.438;2022-10-22T03:34:55;17.40;;;11.20;;
71562;SDS011;59391;52.504;13.438;2022-10-22T03:37:20;21.00;;;12.40;;
71562;SDS011;59391;52.504;13.438;2022-10-22T03:39:48;18.98;;;11.27;;
71562;SDS011;59391;52.504;13.438;2022-10-22T03:42:14;21.17;;;11.70;;
71562;SDS011;59391;52.504;13.438;2022-10-22T03:44:41;18.60;;;11.40;;
71562;SDS011;59391;52.504;13.438;2022-10-22T03:47:07;18.58;;;12.00;;
71562;SDS011;59391;52.504;13.438;2022-10-22T03:49:33;20.55;;;11.77;;
71562;SDS011;59391;52.504;13.438;2022-10-22T03:52:08;18.47;;;10.93;;
71562;SDS011;59391;52.504;13.438;2022-10-22T03:54:37;17.35;;;11.32;;
71562;SDS011;59391;52.504;13.438;2022-10-22T03:57:04;19.25;;;11.43;;
71562;SDS011;59391;52.504;13.438;2022-10-22T03:59:35;17.48;;;10.93;;
71562;SDS011;59391;52.504;13.438;2022-10-22T04:02:06;19.02;;;11.57;;
71562;SDS011;59391;52.504;13.438;2022-10-22T04:04:33;20.17;;;11.90;;
71562;SDS011;59391;52.504;13.438;2022-10-22T04:07:00;18.35;;;11.15;;
71562;SDS011;59391;52.504;13.438;2022-10-22T04:09:25;17.27;;;10.82;;
71562;SDS011;59391;52.504;13.438;2022-10-22T04:11:51;19.03;;;11.30;;
71562;SDS011;59391;52.504;13.438;2022-10-22T04:14:17;17.35;;;10.98;;
71562;SDS011;59391;52.504;13.438;2022-10-22T04:16:45;28.37;;;17.53;;
71562;SDS011;59391;52.504;13.438;2022-10-22T04:19:12;20.35;;;12.40;;
71562;SDS011;59391;52.504;13.438;2022-10-22T04:21:37;18.60;;;11.35;;
71562;SDS011;59391;52.504;13.438;2022-10-22T04:24:03;19.17;;;11.63;;
71562;SDS011;59391;52.504;13.438;2022-10-22T04:26:29;18.38;;;10.90;;
71562;SDS011;59391;52.504;13.438;2022-10-22T04:28:55;18.17;;;11.13;;
71562;SDS011;59391;52.504;13.438;2022-10-22T04:31:21;17.25;;;10.27;;
71562;SDS011;59391;52.504;13.438;2022-10-22T04:33:52;17.08;;;10.98;;
71562;SDS011;59391;52.504;13.438;2022-10-22T04:36:21;17.08;;;10.93;;
71562;SDS011;59391;52.504;13.438;2022-10-22T04:38:53;18.80;;;10.60;;
71562;SDS011;59391;52.504;13.438;2022-10-22T04:41:25;17.67;;;10.82;;
71562;SDS011;59391;52.504;13.438;2022-10-22T04:43:57;17.75;;;10.50;;
71562;SDS011;59391;52.504;13.438;2022-10-22T04:46:24;18.90;;;11.05;;
71562;SDS011;59391;52.504;13.438;2022-10-22T04:48:52;18.80;;;10.90;;
71562;SDS011;59391;52.504;13.438;2022-10-22T04:51:19;16.85;;;10.32;;
71562;SDS011;59391;52.504;13.438;2022-10-22T04:53:49;18.45;;;10.88;;
71562;SDS011;59391;52.504;13.438;2022-10-22T04:56:16;17.70;;;10.93;;
71562;SDS011;59391;52.504;13.438;2022-10-22T04:58:59;18.75;;;11.43;;
71562;SDS011;59391;52.504;13.438;2022-10-22T05:01:37;19.08;;;11.48;;
71562;SDS011;59391;52.504;13.438;2022-10-22T05:04:06;20.08;;;11.15;;
71562;SDS011;59391;52.504;13.438;2022-10-22T05:06:35;17.58;;;10.40;;
71562;SDS011;59391;52.504;13.438;2022-10-22T05:09:06;17.40;;;10.93;;
71562;SDS011;59391;52.504;13.438;2022-10-22T05:11:37;18.48;;;11.25;;
71562;SDS011;59391;52.504;13.438;2022-10-22T05:14:05;19.17;;;11.07;;
71562;SDS011;59391;52.504;13.438;2022-10-22T05:16:33;19.52;;;11.48;;
71562;SDS011;59391;52.504;13.438;2022-10-22T05:19:00;19.13;;;11.30;;
71562;SDS011;59391;52.504;13.438;2022-10-22T05:21:39;19.67;;;11.13;;
71562;SDS011;59391;52.504;13.438;2022-10-22T05:27:37;19.75;;;12.10;;
71562;SDS011;59391;52.504;13.438;2022-10-22T05:30:03;19.92;;;11.75;;
71562;SDS011;59391;52.504;13.438;2022-10-22T05:32:33;18.17;;;11.43;;
71562;SDS011;59391;52.504;13.438;2022-10-22T05:34:59;17.97;;;10.60;;
71562;SDS011;59391;52.504;13.438;2022-10-22T05:37:27;19.15;;;12.05;;
71562;SDS011;59391;52.504;13.438;2022-10-22T05:39:53;20.08;;;11.32;;
71562;SDS011;59391;52.504;13.438;2022-10-22T05:42:20;19.83;;;12.17;;
71562;SDS011;59391;52.504;13.438;2022-10-22T05:44:46;19.40;;;11.55;;
71562;SDS011;59391;52.504;13.438;2022-10-22T05:47:12;21.30;;;11.70;;
71562;SDS011;59391;52.504;13.438;2022-10-22T05:49:38;21.07;;;11.50;;
71562;SDS011;59391;52.504;13.438;2022-10-22T05:52:04;18.67;;;11.73;;
71562;SDS011;59391;52.504;13.438;2022-10-22T05:54:29;19.17;;;11.57;;
71562;SDS011;59391;52.504;13.438;2022-10-22T05:57:02;21.70;;;12.75;;
71562;SDS011;59391;52.504;13.438;2022-10-22T05:59:28;21.37;;;12.30;;
71562;SDS011;59391;52.504;13.438;2022-10-22T06:01:54;18.60;;;11.50;;
71562;SDS011;59391;52.504;13.438;2022-10-22T06:04:22;19.15;;;10.93;;
71562;SDS011;59391;52.504;13.438;2022-10-22T06:06:48;20.42;;;12.18;;
71562;SDS011;59391;52.504;13.438;2022-10-22T06:09:24;20.27;;;12.50;;
71562;SDS011;59391;52.504;13.438;2022-10-22T06:11:56;19.30;;;11.60;;
71562;SDS011;59391;52.504;13.438;2022-10-22T06:14:23;17.83;;;11.20;;
71562;SDS011;59391;52.504;13.438;2022-10-22T06:16:50;34.75;;;19.38;;
71562;SDS011;59391;52.504;13.438;2022-10-22T06:19:17;21.73;;;13.68;;
71562;SDS011;59391;52.504;13.438;2022-10-22T06:21:45;18.88;;;11.50;;
71562;SDS011;59391;52.504;13.438;2022-10-22T06:24:12;22.47;;;12.77;;
71562;SDS011;59391;52.504;13.438;2022-10-22T06:26:40;20.45;;;11.85;;
71562;SDS011;59391;52.504;13.438;2022-10-22T06:29:06;32.58;;;20.77;;
71562;SDS011;59391;52.504;13.438;2022-10-22T06:31:32;20.77;;;12.27;;
71562;SDS011;59391;52.504;13.438;2022-10-22T06:34:08;20.30;;;12.50;;
71562;SDS011;59391;52.504;13.438;2022-10-22T06:36:45;19.00;;;12.20;;
71562;SDS011;59391;52.504;13.438;2022-10-22T06:39:12;22.27;;;12.75;;
71562;SDS011;59391;52.504;13.438;2022-10-22T06:41:40;18.98;;;12.35;;
71562;SDS011;59391;52.504;13.438;2022-10-22T06:44:06;22.95;;;12.25;;
71562;SDS011;59391;52.504;13.438;2022-10-22T06:46:40;19.10;;;12.02;;
71562;SDS011;59391;52.504;13.438;2022-10-22T06:49:12;19.80;;;11.65;;
71562;SDS011;59391;52.504;13.438;2022-10-22T06:51:39;22.90;;;12.00;;
71562;SDS011;59391;52.504;13.438;2022-10-22T06:54:06;19.45;;;12.57;;
71562;SDS011;59391;52.504;13.438;2022-10-22T06:56:34;21.87;;;13.67;;
71562;SDS011;59391;52.504;13.438;2022-10-22T06:59:03;22.27;;;12.38;;
71562;SDS011;59391;52.504;13.438;2022-10-22T07:01:29;22.20;;;12.45;;
71562;SDS011;59391;52.504;13.438;2022-10-22T07:03:58;22.67;;;12.68;;
71562;SDS011;59391;52.504;13.438;2022-10-22T07:06:24;24.07;;;13.97;;
71562;SDS011;59391;52.504;13.438;2022-10-22T07:08:53;21.85;;;12.63;;
71562;SDS011;59391;52.504;13.438;2022-10-22T07:11:22;20.20;;;12.40;;
71562;SDS011;59391;52.504;13.438;2022-10-22T07:13:57;22.13;;;12.77;;
71562;SDS011;59391;52.504;13.438;2022-10-22T07:16:24;20.45;;;12.23;;
71562;SDS011;59391;52.504;13.438;2022-10-22T07:18:50;22.20;;;13.33;;
71562;SDS011;59391;52.504;13.438;2022-10-22T07:21:17;20.20;;;12.30;;
71562;SDS011;59391;52.504;13.438;2022-10-22T07:23:46;20.60;;;12.05;;
71562;SDS011;59391;52.504;13.438;2022-10-22T07:26:13;18.98;;;12.43;;
71562;SDS011;59391;52.504;13.438;2022-10-22T07:28:49;19.50;;;11.20;;
71562;SDS011;59391;52.504;13.438;2022-10-22T07:31:15;19.15;;;11.88;;
71562;SDS011;59391;52.504;13.438;2022-10-22T07:33:43;20.87;;;12.10;;
71562;SDS011;59391;52.504;13.438;2022-10-22T07:36:10;21.38;;;12.52;;
71562;SDS011;59391;52.504;13.438;2022-10-22T07:38:42;20.92;;;12.50;;
71562;SDS011;59391;52.504;13.438;2022-10-22T07:41:10;20.40;;;12.70;;
71562;SDS011;59391;52.504;13.438;2022-10-22T07:43:36;21.80;;;12.55;;
71562;SDS011;59391;52.504;13.438;2022-10-22T07:46:04;19.40;;;11.00;;
71562;SDS011;59391;52.504;13.438;2022-10-22T07:48:32;21.55;;;12.02;;
71562;SDS011;59391;52.504;13.438;2022-10-22T07:50:59;21.63;;;12.25;;
71562;SDS011;59391;52.504;13.438;2022-10-22T07:53:25;18.93;;;11.77;;
71562;SDS011;59391;52.504;13.438;2022-10-22T07:55:51;20.15;;;12.68;;
71562;SDS011;59391;52.504;13.438;2022-10-22T07:58:17;18.58;;;11.98;;
71562;SDS011;59391;52.504;13.438;2022-10-22T08:00:45;18.47;;;11.40;;
71562;SDS011;59391;52.504;13.438;2022-10-22T08:03:11;20.38;;;12.70;;
71562;SDS011;59391;52.504;13.438;2022-10-22T08:05:38;18.92;;;12.27;;
71562;SDS011;59391;52.504;13.438;2022-10-22T08:08:07;20.75;;;13.23;;
71562;SDS011;59391;52.504;13.438;2022-10-22T08:10:34;20.23;;;12.27;;
71562;SDS011;59391;52.504;13.438;2022-10-22T08:13:00;18.70;;;12.43;;
71562;SDS011;59391;52.504;13.438;2022-10-22T08:15:26;19.42;;;11.98;;
71562;SDS011;59391;52.504;13.438;2022-10-22T08:17:52;18.50;;;12.48;;
71562;SDS011;59391;52.504;13.438;2022-10-22T08:20:18;18.80;;;12.37;;
71562;SDS011;59391;52.504;13.438;2022-10-22T08:22:44;20.05;;;11.25;;
71562;SDS011;59391;52.504;13.438;2022-10-22T08:25:10;20.23;;;12.80;;
71562;SDS011;59391;52.504;13.438;2022-10-22T08:27:36;17.73;;;11.80;;
71562;SDS011;59391;52.504;13.438;2022-10-22T08:30:02;18.98;;;12.25;;
71562;SDS011;59391;52.504;13.438;2022-10-22T08:32:29;23.63;;;14.30;;
71562;SDS011;59391;52.504;13.438;2022-10-22T08:34:56;19.67;;;11.68;;
71562;SDS011;59391;52.504;13.438;2022-10-22T08:37:21;22.17;;;12.57;;
71562;SDS011;59391;52.504;13.438;2022-10-22T08:39:47;22.42;;;13.70;;
71562;SDS011;59391;52.504;13.438;2022-10-22T08:51:08;20.13;;;13.20;;
71562;SDS011;59391;52.504;13.438;2022-10-22T08:53:46;18.67;;;12.23;;
71562;SDS011;59391;52.504;13.438;2022-10-22T08:56:31;21.00;;;12.65;;
71562;SDS011;59391;52.504;13.438;2022-10-22T08:59:22;20.15;;;11.65;;
71562;SDS011;59391;52.504;13.438;2022-10-22T09:02:55;20.77;;;12.88;;
71562;SDS011;59391;52.504;13.438;2022-10-22T09:05:42;20.20;;;12.25;;
71562;SDS011;59391;52.504;13.438;2022-10-22T09:08:32;20.83;;;12.88;;
71562;SDS011;59391;52.504;13.438;2022-10-22T09:13:35;19.35;;;13.07;;
71562;SDS011;59391;52.504;13.438;2022-10-22T09:16:10;19.88;;;13.90;;
71562;SDS011;59391;52.504;13.438;2022-10-22T09:18:47;18.65;;;12.15;;
71562;SDS011;59391;52.504;13.438;2022-10-22T09:24:36;20.02;;;13.30;;
71562;SDS011;59391;52.504;13.438;2022-10-22T09:27:11;18.85;;;12.20;;
71562;SDS011;59391;52.504;13.438;2022-10-22T09:29:42;20.80;;;13.05;;
71562;SDS011;59391;52.504;13.438;2022-10-22T09:32:10;19.30;;;12.32;;
71562;SDS011;59391;52.504;13.438;2022-10-22T09:34:35;18.65;;;12.40;;
71562;SDS011;59391;52.504;13.438;2022-10-22T09:37:05;20.00;;;12.80;;
71562;SDS011;59391;52.504;13.438;2022-10-22T09:39:36;20.45;;;12.68;;
71562;SDS011;59391;52.504;13.438;2022-10-22T09:42:13;16.65;;;11.38;;
71562;SDS011;59391;52.504;13.438;2022-10-22T09:44:41;20.77;;;11.88;;
71562;SDS011;59391;52.504;13.438;2022-10-22T09:47:50;17.58;;;11.88;;
71562;SDS011;59391;52.504;13.438;2022-10-22T09:53:20;17.52;;;11.50;;
71562;SDS011;59391;52.504;13.438;2022-10-22T09:55:52;20.02;;;11.77;;
71562;SDS011;59391;52.504;13.438;2022-10-22T09:58:24;19.70;;;11.50;;
71562;SDS011;59391;52.504;13.438;2022-10-22T10:00:57;17.65;;;11.73;;
71562;SDS011;59391;52.504;13.438;2022-10-22T10:03:26;18.27;;;11.30;;
71562;SDS011;59391;52.504;13.438;2022-10-22T10:05:57;20.52;;;11.00;;
71562;SDS011;59391;52.504;13.438;2022-10-22T10:08:26;18.73;;;11.77;;
71562;SDS011;59391;52.504;13.438;2022-10-22T10:10:53;17.10;;;11.50;;
71562;SDS011;59391;52.504;13.438;2022-10-22T10:13:35;19.50;;;13.30;;
71562;SDS011;59391;52.504;13.438;2022-10-22T10:16:28;18.10;;;11.77;;
71562;SDS011;59391;52.504;13.438;2022-10-22T10:24:44;17.53;;;11.40;;
71562;SDS011;59391;52.504;13.438;2022-10-22T10:27:54;18.45;;;11.20;;
71562;SDS011;59391;52.504;13.438;2022-10-22T10:30:39;20.35;;;11.93;;
71562;SDS011;59391;52.504;13.438;2022-10-22T10:36:18;19.33;;;11.80;;
71562;SDS011;59391;52.504;13.438;2022-10-22T10:39:06;22.20;;;12.17;;
71562;SDS011;59391;52.504;13.438;2022-10-22T10:41:46;20.35;;;13.00;;
71562;SDS011;59391;52.504;13.438;2022-10-22T10:44:34;19.33;;;11.98;;
71562;SDS011;59391;52.504;13.438;2022-10-22T10:50:17;18.48;;;12.18;;
71562;SDS011;59391;52.504;13.438;2022-10-22T10:53:09;19.60;;;12.30;;
71562;SDS011;59391;52.504;13.438;2022-10-22T10:55:50;21.50;;;12.38;;
71562;SDS011;59391;52.504;13.438;2022-10-22T10:58:59;19.65;;;11.98;;
71562;SDS011;59391;52.504;13.438;2022-10-22T11:01:48;18.65;;;12.23;;
71562;SDS011;59391;52.504;13.438;2022-10-22T11:04:54;20.73;;;12.95;;
71562;SDS011;59391;52.504;13.438;2022-10-22T11:07:33;22.53;;;13.23;;
71562;SDS011;59391;52.504;13.438;2022-10-22T11:13:21;22.88;;;13.63;;
71562;SDS011;59391;52.504;13.438;2022-10-22T11:16:11;19.58;;;12.38;;
71562;SDS011;59391;52.504;13.438;2022-10-22T11:24:45;22.88;;;13.38;;
71562;SDS011;59391;52.504;13.438;2022-10-22T11:30:15;19.70;;;12.57;;
71562;SDS011;59391;52.504;13.438;2022-10-22T11:32:46;22.38;;;13.73;;
71562;SDS011;59391;52.504;13.438;2022-10-22T11:35:23;23.83;;;13.83;;
71562;SDS011;59391;52.504;13.438;2022-10-22T11:37:55;23.02;;;13.52;;
71562;SDS011;59391;52.504;13.438;2022-10-22T11:43:09;21.05;;;13.20;;
71562;SDS011;59391;52.504;13.438;2022-10-22T11:45:55;20.73;;;13.82;;
71562;SDS011;59391;52.504;13.438;2022-10-22T11:48:35;20.20;;;12.70;;
71562;SDS011;59391;52.504;13.438;2022-10-22T11:51:02;40.13;;;20.88;;
71562;SDS011;59391;52.504;13.438;2022-10-22T11:53:48;24.90;;;13.93;;
71562;SDS011;59391;52.504;13.438;2022-10-22T11:56:24;29.20;;;16.98;;
71562;SDS011;59391;52.504;13.438;2022-10-22T11:59:00;20.70;;;13.27;;
71562;SDS011;59391;52.504;13.438;2022-10-22T12:01:48;18.97;;;12.90;;
71562;SDS011;59391;52.504;13.438;2022-10-22T12:04:20;18.73;;;11.35;;
71562;SDS011;59391;52.504;13.438;2022-10-22T12:07:03;20.77;;;13.80;;
71562;SDS011;59391;52.504;13.438;2022-10-22T12:09:55;22.42;;;14.45;;
71562;SDS011;59391;52.504;13.438;2022-10-22T12:12:22;18.50;;;10.63;;
71562;SDS011;59391;52.504;13.438;2022-10-22T12:14:57;14.50;;;10.03;;
71562;SDS011;59391;52.504;13.438;2022-10-22T12:17:23;14.40;;;9.15;;
71562;SDS011;59391;52.504;13.438;2022-10-22T12:19:58;13.48;;;9.68;;
71562;SDS011;59391;52.504;13.438;2022-10-22T12:22:35;13.80;;;9.45;;
71562;SDS011;59391;52.504;13.438;2022-10-22T12:25:08;11.75;;;7.80;;
71562;SDS011;59391;52.504;13.438;2022-10-22T12:27:48;13.87;;;7.40;;
71562;SDS011;59391;52.504;13.438;2022-10-22T12:30:22;13.00;;;7.75;;
71562;SDS011;59391;52.504;13.438;2022-10-22T12:32:52;11.73;;;7.88;;
71562;SDS011;59391;52.504;13.438;2022-10-22T12:35:25;12.23;;;7.22;;
71562;SDS011;59391;52.504;13.438;2022-10-22T12:37:55;12.05;;;7.13;;
71562;SDS011;59391;52.504;13.438;2022-10-22T12:40:35;11.57;;;7.23;;
71562;SDS011;59391;52.504;13.438;2022-10-22T12:43:38;9.40;;;6.03;;
71562;SDS011;59391;52.504;13.438;2022-10-22T12:45:57;12.73;;;7.25;;
71562;SDS011;59391;52.504;13.438;2022-10-22T12:48:25;9.05;;;5.97;;
71562;SDS011;59391;52.504;13.438;2022-10-22T12:50:55;9.05;;;5.55;;
71562;SDS011;59391;52.504;13.438;2022-10-22T12:53:29;9.57;;;5.17;;
71562;SDS011;59391;52.504;13.438;2022-10-22T12:56:02;9.02;;;4.88;;
71562;SDS011;59391;52.504;13.438;2022-10-22T12:58:43;9.32;;;5.65;;
71562;SDS011;59391;52.504;13.438;2022-10-22T13:01:16;9.65;;;5.20;;
71562;SDS011;59391;52.504;13.438;2022-10-22T13:08:43;7.03;;;4.13;;
71562;SDS011;59391;52.504;13.438;2022-10-22T13:11:20;7.80;;;3.83;;
71562;SDS011;59391;52.504;13.438;2022-10-22T13:13:45;8.13;;;3.70;;
71562;SDS011;59391;52.504;13.438;2022-10-22T13:16:15;7.57;;;4.22;;
71562;SDS011;59391;52.504;13.438;2022-10-22T13:18:43;5.93;;;3.85;;
71562;SDS011;59391;52.504;13.438;2022-10-22T13:21:24;7.90;;;3.17;;
71562;SDS011;59391;52.504;13.438;2022-10-22T13:23:58;8.88;;;3.83;;
71562;SDS011;59391;52.504;13.438;2022-10-22T13:26:34;9.88;;;3.67;;
71562;SDS011;59391;52.504;13.438;2022-10-22T13:29:02;6.93;;;3.20;;
71562;SDS011;59391;52.504;13.438;2022-10-22T13:31:35;7.30;;;3.88;;
71562;SDS011;59391;52.504;13.438;2022-10-22T13:34:11;6.80;;;3.43;;
71562;SDS011;59391;52.504;13.438;2022-10-22T13:36:43;7.05;;;3.10;;
71562;SDS011;59391;52.504;13.438;2022-10-22T13:39:27;6.70;;;3.35;;
71562;SDS011;59391;52.504;13.438;2022-10-22T13:41:52;7.13;;;3.70;;
71562;SDS011;59391;52.504;13.438;2022-10-22T13:44:18;7.43;;;3.20;;
71562;SDS011;59391;52.504;13.438;2022-10-22T13:46:44;8.02;;;3.22;;
71562;SDS011;59391;52.504;13.438;2022-10-22T13:49:14;6.72;;;3.50;;
71562;SDS011;59391;52.504;13.438;2022-10-22T13:51:43;10.30;;;3.80;;
71562;SDS011;59391;52.504;13.438;2022-10-22T13:54:13;7.13;;;3.33;;
71562;SDS011;59391;52.504;13.438;2022-10-22T13:56:44;5.90;;;3.33;;
71562;SDS011;59391;52.504;13.438;2022-10-22T13:59:10;9.77;;;2.75;;
71562;SDS011;59391;52.504;13.438;2022-10-22T14:01:37;11.00;;;4.75;;
71562;SDS011;59391;52.504;13.438;2022-10-22T14:04:04;8.77;;;3.50;;
71562;SDS011;59391;52.504;13.438;2022-10-22T14:06:34;8.95;;;3.30;;
71562;SDS011;59391;52.504;13.438;2022-10-22T14:09:09;7.15;;;3.28;;
71562;SDS011;59391;52.504;13.438;2022-10-22T14:11:39;7.45;;;3.33;;
71562;SDS011;59391;52.504;13.438;2022-10-22T14:14:04;9.13;;;4.07;;
71562;SDS011;59391;52.504;13.438;2022-10-22T14:16:38;7.80;;;4.05;;
71562;SDS011;59391;52.504;13.438;2022-10-22T14:19:03;8.02;;;4.15;;
71562;SDS011;59391;52.504;13.438;2022-10-22T14:21:35;8.03;;;3.20;;
71562;SDS011;59391;52.504;13.438;2022-10-22T14:24:03;7.65;;;3.60;;
71562;SDS011;59391;52.504;13.438;2022-10-22T14:26:29;7.07;;;3.50;;
71562;SDS011;59391;52.504;13.438;2022-10-22T14:29:00;9.40;;;3.60;;
71562;SDS011;59391;52.504;13.438;2022-10-22T14:31:32;19.60;;;9.70;;
71562;SDS011;59391;52.504;13.438;2022-10-22T14:33:58;9.23;;;4.20;;
71562;SDS011;59391;52.504;13.438;2022-10-22T14:36:23;12.00;;;3.55;;
71562;SDS011;59391;52.504;13.438;2022-10-22T14:38:49;9.23;;;3.70;;
71562;SDS011;59391;52.504;13.438;2022-10-22T14:41:22;22.50;;;10.90;;
71562;SDS011;59391;52.504;13.438;2022-10-22T14:43:50;8.47;;;4.43;;
71562;SDS011;59391;52.504;13.438;2022-10-22T14:46:19;10.45;;;5.20;;
71562;SDS011;59391;52.504;13.438;2022-10-22T14:48:45;10.85;;;4.63;;
71562;SDS011;59391;52.504;13.438;2022-10-22T14:51:15;8.45;;;3.80;;
71562;SDS011;59391;52.504;13.438;2022-10-22T14:53:45;9.93;;;4.07;;
71562;SDS011;59391;52.504;13.438;2022-10-22T14:56:15;15.77;;;6.47;;
71562;SDS011;59391;52.504;13.438;2022-10-22T14:58:45;7.55;;;4.57;;
71562;SDS011;59391;52.504;13.438;2022-10-22T15:01:11;10.90;;;4.90;;
71562;SDS011;59391;52.504;13.438;2022-10-22T15:03:39;10.73;;;5.07;;
71562;SDS011;59391;52.504;13.438;2022-10-22T15:06:05;10.80;;;4.75;;
71562;SDS011;59391;52.504;13.438;2022-10-22T15:08:31;10.80;;;4.18;;
71562;SDS011;59391;52.504;13.438;2022-10-22T15:10:58;9.45;;;4.00;;
71562;SDS011;59391;52.504;13.438;2022-10-22T15:13:30;10.15;;;4.20;;
71562;SDS011;59391;52.504;13.438;2022-10-22T15:15:59;11.10;;;5.75;;
71562;SDS011;59391;52.504;13.438;2022-10-22T15:18:26;12.10;;;6.13;;
71562;SDS011;59391;52.504;13.438;2022-10-22T15:20:56;15.35;;;6.43;;
71562;SDS011;59391;52.504;13.438;2022-10-22T15:23:28;12.07;;;5.30;;
71562;SDS011;59391;52.504;13.438;2022-10-22T15:25:54;9.45;;;4.65;;
71562;SDS011;59391;52.504;13.438;2022-10-22T15:28:21;14.27;;;6.37;;
71562;SDS011;59391;52.504;13.438;2022-10-22T15:30:52;20.88;;;10.13;;
71562;SDS011;59391;52.504;13.438;2022-10-22T15:33:23;17.00;;;8.13;;
71562;SDS011;59391;52.504;13.438;2022-10-22T15:36:20;19.42;;;10.52;;
71562;SDS011;59391;52.504;13.438;2022-10-22T15:38:54;13.80;;;7.32;;
71562;SDS011;59391;52.504;13.438;2022-10-22T15:41:23;16.63;;;8.30;;
71562;SDS011;59391;52.504;13.438;2022-10-22T15:43:57;16.25;;;7.75;;
71562;SDS011;59391;52.504;13.438;2022-10-22T15:46:23;13.90;;;7.75;;
71562;SDS011;59391;52.504;13.438;2022-10-22T15:48:53;20.23;;;10.57;;
71562;SDS011;59391;52.504;13.438;2022-10-22T15:51:22;14.52;;;6.95;;
71562;SDS011;59391;52.504;13.438;2022-10-22T15:53:53;14.60;;;7.03;;
71562;SDS011;59391;52.504;13.438;2022-10-22T15:56:23;10.48;;;5.88;;
71562;SDS011;59391;52.504;13.438;2022-10-22T15:58:55;17.25;;;6.60;;
71562;SDS011;59391;52.504;13.438;2022-10-22T16:01:28;15.38;;;7.20;;
71562;SDS011;59391;52.504;13.438;2022-10-22T16:03:56;19.17;;;9.32;;
71562;SDS011;59391;52.504;13.438;2022-10-22T16:06:35;18.13;;;10.03;;
71562;SDS011;59391;52.504;13.438;2022-10-22T16:09:11;26.10;;;13.60;;
71562;SDS011;59391;52.504;13.438;2022-10-22T16:11:41;28.85;;;15.73;;
71562;SDS011;59391;52.504;13.438;2022-10-22T16:14:08;32.20;;;17.30;;
71562;SDS011;59391;52.504;13.438;2022-10-22T16:16:37;28.90;;;15.23;;
71562;SDS011;59391;52.504;13.438;2022-10-22T16:19:17;27.30;;;14.10;;
71562;SDS011;59391;52.504;13.438;2022-10-22T16:21:47;26.08;;;13.85;;
71562;SDS011;59391;52.504;13.438;2022-10-22T16:24:14;27.05;;;13.98;;
71562;SDS011;59391;52.504;13.438;2022-10-22T16:26:41;15.50;;;9.60;;
71562;SDS011;59391;52.504;13.438;2022-10-22T16:29:06;16.97;;;8.30;;
71562;SDS011;59391;52.504;13.438;2022-10-22T16:31:35;16.23;;;7.97;;
71562;SDS011;59391;52.504;13.438;2022-10-22T16:34:01;14.00;;;7.90;;
71562;SDS011;59391;52.504;13.438;2022-10-22T16:36:26;15.15;;;8.00;;
71562;SDS011;59391;52.504;13.438;2022-10-22T16:38:53;15.07;;;7.15;;